Time;durP1;ratioP1;P1;durP2;ratioP2;P2;SDS_P1;SDS_P2;PMS_P1;PMS_P2;Temp;Humidity;BMP_temperature;BMP_pressure;BME280_temperature;BME280_humidity;BME280_pressure;Samples;Min_cycle;Max_cycle;Signal;HPM_P1;HPM_P2
2021/07/18 00:00:04;;;;;;;13.82;9.43;;;;;;;23.90;66.75;99279.13;4378550;32;35975;-84
2021/07/18 00:02:31;;;;;;;12.98;9.13;;;;;;;23.62;67.74;99281.19;4391566;32;33998;-83
2021/07/18 00:05:04;;;;;;;13.35;8.88;;;;;;;23.57;67.92;99275.47;4390022;32;32413;-82
2021/07/18 00:07:32;;;;;;;13.43;9.82;;;;;;;23.63;67.75;99276.66;4391637;32;33655;-83
2021/07/18 00:10:00;;;;;;;10.77;8.82;;;;;;;23.57;68.03;99282.69;4391637;32;34411;-83
2021/07/18 00:12:28;;;;;;;12.95;9.80;;;;;;;23.69;67.53;99276.03;4390954;32;33016;-83
2021/07/18 00:14:56;;;;;;;11.60;8.70;;;;;;;23.84;66.95;99268.16;4379050;32;33670;-83
2021/07/18 00:17:24;;;;;;;17.60;8.73;;;;;;;23.91;66.76;99271.88;4390826;32;32656;-83
2021/07/18 00:19:52;;;;;;;11.27;8.82;;;;;;;23.94;66.72;99268.87;4378741;32;33444;-83
2021/07/18 00:22:19;;;;;;;13.57;8.10;;;;;;;23.96;66.50;99267.69;4391463;32;33525;-84
2021/07/18 00:24:47;;;;;;;13.30;8.60;;;;;;;24.02;66.24;99266.16;4378774;32;32260;-83
2021/07/18 00:27:15;;;;;;;13.00;8.95;;;;;;;24.00;66.19;99262.81;4391265;32;33971;-83
2021/07/18 00:29:44;;;;;;;11.80;8.48;;;;;;;24.02;66.10;99268.84;4390325;32;34508;-83
2021/07/18 00:32:11;;;;;;;15.15;8.45;;;;;;;23.98;66.23;99272.94;4378591;32;32892;-83
2021/07/18 00:34:39;;;;;;;13.90;9.52;;;;;;;24.00;66.23;99274.44;4378729;32;33880;-83
2021/07/18 00:37:07;;;;;;;13.02;9.23;;;;;;;23.92;66.44;99276.25;4390286;32;34712;-83
2021/07/18 00:39:34;;;;;;;11.60;8.52;;;;;;;23.77;67.05;99273.38;4378171;32;33073;-83
2021/07/18 00:42:03;;;;;;;11.82;9.00;;;;;;;23.94;66.36;99272.41;4376257;32;33372;-83
2021/07/18 00:44:31;;;;;;;10.85;8.95;;;;;;;23.93;66.44;99265.34;4378517;32;33044;-83
2021/07/18 00:47:05;;;;;;;13.48;8.32;;;;;;;23.99;66.25;99261.97;4390072;32;33509;-83
2021/07/18 00:49:33;;;;;;;13.88;9.82;;;;;;;24.05;66.09;99265.84;4390909;32;34125;-83
2021/07/18 00:52:01;;;;;;;12.88;8.85;;;;;;;23.98;66.30;99257.59;4390766;32;33311;-83
2021/07/18 00:54:29;;;;;;;14.38;9.15;;;;;;;23.87;66.66;99257.03;4378731;32;34254;-84
2021/07/18 00:56:57;;;;;;;14.65;9.65;;;;;;;23.90;66.47;99252.16;4378430;32;34936;-84
2021/07/18 00:59:25;;;;;;;16.45;9.32;;;;;;;23.86;66.57;99258.06;4391265;32;34602;-84
2021/07/18 01:01:52;;;;;;;12.60;9.05;;;;;;;23.91;66.51;99263.78;4391303;32;33767;-85
2021/07/18 01:04:20;;;;;;;14.23;9.27;;;;;;;23.99;66.17;99256.56;4378725;32;33399;-84
2021/07/18 01:06:48;;;;;;;10.63;8.57;;;;;;;23.94;66.43;99260.78;4379779;32;32937;-85
2021/07/18 01:09:17;;;;;;;12.02;9.18;;;;;;;24.03;66.03;99262.47;4381759;32;32578;-84
2021/07/18 01:11:44;;;;;;;12.48;9.45;;;;;;;23.92;66.27;99257.38;4391353;32;33522;-83
2021/07/18 01:14:12;;;;;;;11.88;8.68;;;;;;;23.87;66.56;99259.72;4378305;32;33715;-83
2021/07/18 01:16:40;;;;;;;13.75;8.77;;;;;;;24.01;65.98;99248.31;4390471;32;33987;-83
2021/07/18 01:19:09;;;;;;;13.73;9.82;;;;;;;24.00;65.99;99252.84;4377891;32;33111;-83
2021/07/18 01:21:39;;;;;;;14.23;9.90;;;;;;;23.87;66.41;99252.50;4377946;32;33392;-83
2021/07/18 01:24:07;;;;;;;16.37;9.50;;;;;;;23.91;66.29;99250.31;4377785;32;33945;-83
2021/07/18 01:26:34;;;;;;;14.80;10.15;;;;;;;23.92;66.22;99254.69;4377745;32;33184;-83
2021/07/18 01:29:02;;;;;;;11.18;9.10;;;;;;;23.97;66.00;99257.72;4390333;32;33504;-83
2021/07/18 01:31:29;;;;;;;11.43;8.80;;;;;;;23.83;66.48;99255.69;4375804;32;33158;-83
2021/07/18 01:33:57;;;;;;;17.10;9.95;;;;;;;24.00;65.94;99257.41;4402808;32;33260;-83
2021/07/18 01:36:25;;;;;;;14.77;8.73;;;;;;;23.69;66.91;99276.91;4377298;32;34096;-83
2021/07/18 01:38:53;;;;;;;12.48;9.27;;;;;;;22.75;70.74;99304.59;4377624;32;34547;-83
2021/07/18 01:41:20;;;;;;;12.43;9.52;;;;;;;22.93;70.17;99264.22;4389893;32;33191;-82
2021/07/18 01:43:48;;;;;;;12.45;9.75;;;;;;;23.32;68.82;99269.13;4377384;32;33514;-82
2021/07/18 01:46:15;;;;;;;13.73;10.43;;;;;;;22.75;71.26;99293.84;4389439;32;34250;-82
2021/07/18 01:48:43;;;;;;;12.10;9.23;;;;;;;23.21;69.34;99299.87;4376785;32;34399;-83
2021/07/18 01:51:11;;;;;;;18.85;10.73;;;;;;;23.13;69.24;99294.47;4377122;32;32860;-83
2021/07/18 01:53:39;;;;;;;15.43;9.80;;;;;;;22.92;70.44;99297.50;4377487;32;32595;-84
2021/07/18 01:56:06;;;;;;;15.27;9.18;;;;;;;23.54;68.07;99309.97;4378775;32;32869;-84
2021/07/18 01:58:34;;;;;;;17.20;10.65;;;;;;;23.18;69.65;99310.97;4392148;32;33962;-84
2021/07/18 02:01:02;;;;;;;13.02;9.85;;;;;;;23.15;69.69;99292.44;4392548;32;33986;-84
2021/07/18 02:03:31;;;;;;;17.58;9.88;;;;;;;23.81;67.21;99288.22;4379857;32;32580;-84
2021/07/18 02:05:58;;;;;;;12.32;9.65;;;;;;;23.44;68.46;99307.41;4392405;32;33463;-84
2021/07/18 02:08:27;;;;;;;11.98;9.30;;;;;;;23.51;68.09;99309.28;4392489;32;33725;-84
2021/07/18 02:10:54;;;;;;;13.82;9.45;;;;;;;23.91;66.75;99306.94;4379991;32;33256;-84
2021/07/18 02:13:22;;;;;;;13.25;10.00;;;;;;;23.88;66.69;99291.06;4378115;32;32599;-84
2021/07/18 02:15:52;;;;;;;16.87;10.88;;;;;;;23.29;68.76;99300.94;4392516;32;34747;-84
2021/07/18 02:18:19;;;;;;;14.50;11.07;;;;;;;22.75;71.14;99309.16;4392209;32;34509;-84
2021/07/18 02:20:47;;;;;;;16.95;11.65;;;;;;;22.64;71.53;99309.38;4392381;32;34514;-84
2021/07/18 02:23:15;;;;;;;16.58;11.77;;;;;;;22.85;70.89;99287.50;4391957;32;33744;-84
2021/07/18 02:25:42;;;;;;;14.20;10.32;;;;;;;23.41;68.82;99270.03;4391409;32;33942;-84
2021/07/18 02:28:10;;;;;;;15.77;11.10;;;;;;;23.03;70.08;99296.41;4392098;32;34434;-84
2021/07/18 02:30:38;;;;;;;21.23;11.93;;;;;;;22.12;74.00;99312.78;4391288;32;32967;-83
2021/07/18 02:33:05;;;;;;;14.65;10.73;;;;;;;22.70;71.74;99309.63;4392383;32;33882;-84
2021/07/18 02:35:33;;;;;;;16.40;10.68;;;;;;;23.31;69.30;99280.06;4391884;32;34702;-84
2021/07/18 02:38:01;;;;;;;14.48;10.80;;;;;;;23.29;69.19;99274.00;4391818;32;34526;-84
2021/07/18 02:40:29;;;;;;;19.75;12.37;;;;;;;22.80;71.14;99284.44;4392549;32;34656;-83
2021/07/18 02:42:56;;;;;;;13.07;10.32;;;;;;;22.74;71.34;99285.91;4392329;32;33451;-83
2021/07/18 02:45:25;;;;;;;16.15;11.80;;;;;;;23.24;69.44;99269.94;4392172;32;33054;-83
2021/07/18 02:47:52;;;;;;;19.00;11.75;;;;;;;23.47;68.54;99266.66;4379404;32;33322;-84
2021/07/18 02:50:22;;;;;;;16.42;11.95;;;;;;;23.40;68.67;99271.00;4392322;32;33996;-83
2021/07/18 02:52:56;;;;;;;16.62;11.60;;;;;;;23.05;69.89;99277.41;4392493;32;32797;-84
2021/07/18 02:55:24;;;;;;;15.52;11.27;;;;;;;22.70;71.36;99279.16;4391983;32;33981;-83
2021/07/18 02:57:52;;;;;;;13.90;10.95;;;;;;;23.33;69.10;99278.91;4379765;32;32995;-83
2021/07/18 03:00:22;;;;;;;18.17;11.60;;;;;;;23.19;69.43;99260.66;4392135;32;32721;-83
2021/07/18 03:02:50;;;;;;;16.02;12.20;;;;;;;22.86;70.44;99268.50;4391971;32;32375;-84
2021/07/18 03:05:19;;;;;;;19.00;11.23;;;;;;;22.19;73.28;99292.34;4391570;32;32827;-84
2021/07/18 03:07:47;;;;;;;19.85;11.40;;;;;;;22.33;73.10;99303.56;4391149;32;33634;-83
2021/07/18 03:10:17;;;;;;;15.23;11.80;;;;;;;22.99;70.41;99301.28;4379286;32;33101;-84
2021/07/18 03:12:46;;;;;;;18.90;12.32;;;;;;;22.79;71.07;99310.53;4391823;32;33651;-83
2021/07/18 03:15:14;;;;;;;15.48;12.00;;;;;;;23.07;70.11;99305.84;4391880;32;33788;-84
2021/07/18 03:17:42;;;;;;;15.50;11.12;;;;;;;23.17;69.60;99309.28;4391807;32;33641;-83
2021/07/18 03:20:13;;;;;;;14.45;10.18;;;;;;;23.30;69.26;99308.00;4391847;32;34395;-83
2021/07/18 03:22:41;;;;;;;15.95;10.65;;;;;;;23.42;68.80;99298.66;4391815;32;33812;-83
2021/07/18 03:25:09;;;;;;;14.98;10.60;;;;;;;23.26;69.15;99304.78;4390087;32;32993;-83
2021/07/18 03:27:38;;;;;;;15.52;11.70;;;;;;;23.03;70.29;99309.88;4391562;32;34584;-83
2021/07/18 03:30:08;;;;;;;16.98;10.90;;;;;;;23.14;70.00;99317.69;4389770;32;34086;-83
2021/07/18 03:32:36;;;;;;;21.00;11.85;;;;;;;23.34;69.24;99323.69;4391877;32;33421;-82
2021/07/18 03:35:05;;;;;;;17.85;11.85;;;;;;;23.73;67.70;99321.34;4390992;32;33817;-82
2021/07/18 03:37:38;;;;;;;17.08;11.38;;;;;;;23.50;68.59;99314.84;4391548;32;33941;-83
2021/07/18 03:40:11;;;;;;;16.90;11.90;;;;;;;23.27;69.62;99314.56;4391588;32;34719;-83
2021/07/18 03:42:38;;;;;;;14.55;11.10;;;;;;;23.74;67.88;99323.06;4391588;32;33689;-83
2021/07/18 03:45:07;;;;;;;17.15;12.30;;;;;;;23.75;67.83;99324.75;4391235;32;33386;-83
2021/07/18 03:47:35;;;;;;;18.48;12.25;;;;;;;23.58;68.58;99322.13;4390845;32;33452;-83
2021/07/18 03:50:04;;;;;;;21.40;12.45;;;;;;;23.94;67.23;99322.78;4390460;32;33907;-83
2021/07/18 03:52:32;;;;;;;20.80;12.25;;;;;;;24.09;66.48;99321.16;4391362;32;33512;-83
2021/07/18 03:55:00;;;;;;;19.92;12.80;;;;;;;24.06;66.86;99320.63;4391322;32;33878;-83
2021/07/18 03:57:29;;;;;;;19.37;12.30;;;;;;;23.88;67.39;99318.91;4378545;32;34496;-83
2021/07/18 03:59:56;;;;;;;18.23;12.65;;;;;;;23.94;67.53;99322.78;4390933;32;33619;-84
2021/07/18 04:02:24;;;;;;;17.48;12.95;;;;;;;23.97;67.18;99325.97;4391046;32;33753;-83
2021/07/18 04:04:52;;;;;;;23.87;14.43;;;;;;;23.89;67.83;99327.84;4391349;32;33387;-84
2021/07/18 04:07:20;;;;;;;18.65;13.10;;;;;;;23.67;68.91;99332.81;4391178;32;34046;-83
2021/07/18 04:09:48;;;;;;;20.27;14.07;;;;;;;23.45;69.89;99334.19;4390828;32;33131;-83
2021/07/18 04:12:16;;;;;;;24.95;15.07;;;;;;;23.47;69.90;99353.72;4390973;32;34243;-83
2021/07/18 04:14:43;;;;;;;23.55;15.20;;;;;;;23.65;69.45;99355.56;4391346;32;33222;-84
2021/07/18 04:17:11;;;;;;;22.42;15.77;;;;;;;23.80;68.74;99353.06;4377882;32;33221;-84
2021/07/18 04:19:39;;;;;;;25.98;15.38;;;;;;;23.66;69.54;99359.94;4391105;32;33544;-83
2021/07/18 04:22:06;;;;;;;23.75;15.32;;;;;;;23.44;70.41;99363.97;4391089;32;34179;-85
2021/07/18 04:24:34;;;;;;;31.60;16.00;;;;;;;24.07;68.02;99360.94;4391052;32;34913;-83
2021/07/18 04:27:02;;;;;;;27.35;15.95;;;;;;;23.92;68.67;99362.53;4378848;32;33080;-83
2021/07/18 04:29:29;;;;;;;24.95;15.20;;;;;;;23.75;69.14;99356.25;4389844;32;33416;-84
2021/07/18 04:31:57;;;;;;;23.80;15.40;;;;;;;23.65;69.82;99361.78;4390748;32;33620;-83
2021/07/18 04:34:26;;;;;;;23.60;15.27;;;;;;;23.72;69.54;99352.03;4391101;32;34030;-83
2021/07/18 04:36:53;;;;;;;23.67;14.52;;;;;;;23.77;69.71;99355.06;4391477;32;34380;-83
2021/07/18 04:39:20;;;;;;;20.77;14.68;;;;;;;23.92;69.34;99349.06;4391104;32;34857;-84
2021/07/18 04:41:48;;;;;;;21.05;15.45;;;;;;;23.82;70.57;99359.13;4376858;32;32476;-84
2021/07/18 04:44:16;;;;;;;19.52;14.00;;;;;;;24.13;69.69;99359.44;4391092;32;33222;-84
2021/07/18 04:46:43;;;;;;;24.37;15.30;;;;;;;24.14;68.92;99358.41;4378219;32;34391;-84
2021/07/18 04:49:11;;;;;;;20.12;12.52;;;;;;;24.43;67.85;99356.13;4376230;32;33280;-84
2021/07/18 04:51:39;;;;;;;24.80;13.62;;;;;;;24.64;67.11;99352.97;4390720;32;33591;-84
2021/07/18 04:54:11;;;;;;;22.65;13.60;;;;;;;24.63;66.71;99361.22;4391136;32;33651;-84
2021/07/18 04:56:39;;;;;;;18.60;12.88;;;;;;;24.65;66.87;99370.84;4390945;32;34104;-84
2021/07/18 04:59:07;;;;;;;24.05;14.40;;;;;;;24.66;66.98;99361.72;4378460;32;34408;-84
2021/07/18 05:01:34;;;;;;;20.67;13.15;;;;;;;24.56;67.10;99371.84;4378629;32;32802;-83
2021/07/18 05:04:02;;;;;;;21.00;14.95;;;;;;;24.51;67.83;99375.03;4384654;32;32732;-82
2021/07/18 05:06:30;;;;;;;18.20;12.90;;;;;;;24.49;67.58;99381.59;4390962;32;34039;-84
2021/07/18 05:08:57;;;;;;;17.90;14.20;;;;;;;24.58;67.47;99379.78;4385365;32;32808;-84
2021/07/18 05:11:25;;;;;;;18.67;13.80;;;;;;;24.75;66.97;99376.09;4391195;32;32301;-83
2021/07/18 05:13:53;;;;;;;18.98;13.40;;;;;;;24.88;66.02;99383.69;4390635;32;33669;-84
2021/07/18 05:16:20;;;;;;;18.90;12.68;;;;;;;25.04;66.05;99383.66;4390898;32;33959;-84
2021/07/18 05:18:48;;;;;;;18.67;12.32;;;;;;;25.11;65.56;99382.00;4392007;32;33899;-84
2021/07/18 05:21:16;;;;;;;19.87;14.00;;;;;;;25.00;65.44;99379.62;4390850;32;34001;-84
2021/07/18 05:23:43;;;;;;;18.87;13.65;;;;;;;25.39;64.40;99378.91;4377922;32;33207;-82
2021/07/18 05:26:11;;;;;;;17.85;13.10;;;;;;;25.60;63.82;99370.25;4388808;32;33970;-83
2021/07/18 05:28:39;;;;;;;20.80;14.02;;;;;;;25.69;63.45;99374.63;4377809;32;33265;-83
2021/07/18 05:31:07;;;;;;;17.98;12.77;;;;;;;25.49;63.72;99368.75;4379731;32;33979;-82
2021/07/18 05:33:35;;;;;;;20.67;13.95;;;;;;;25.54;63.71;99374.47;4392449;32;33513;-82
2021/07/18 05:36:02;;;;;;;20.25;12.93;;;;;;;25.46;63.89;99374.53;4392183;32;33419;-82
2021/07/18 05:38:30;;;;;;;17.58;13.80;;;;;;;25.89;62.73;99366.97;4391019;32;34595;-82
2021/07/18 05:41:00;;;;;;;22.52;14.38;;;;;;;25.63;63.76;99370.72;4379346;32;32493;-82
2021/07/18 05:43:27;;;;;;;17.95;12.80;;;;;;;25.70;63.75;99362.78;4386070;32;34140;-82
2021/07/18 05:45:55;;;;;;;17.45;12.90;;;;;;;25.98;62.95;99371.31;4379436;32;33379;-83
2021/07/18 05:48:24;;;;;;;16.25;12.32;;;;;;;25.84;63.17;99361.25;4392134;32;34653;-82
2021/07/18 05:50:52;;;;;;;20.62;13.62;;;;;;;25.79;63.25;99367.19;4379705;32;33009;-83
2021/07/18 05:53:20;;;;;;;18.83;13.82;;;;;;;26.22;62.48;99365.78;4379491;32;32923;-82
2021/07/18 05:55:47;;;;;;;19.27;12.82;;;;;;;26.40;62.68;99365.50;4392257;32;34830;-82
2021/07/18 05:58:15;;;;;;;17.35;12.75;;;;;;;26.27;61.69;99363.38;4392015;32;34055;-82
2021/07/18 06:00:42;;;;;;;20.27;12.98;;;;;;;26.31;61.62;99358.47;4379611;32;32407;-82
2021/07/18 06:03:10;;;;;;;20.55;13.20;;;;;;;26.23;62.01;99358.50;4379481;32;32755;-82
2021/07/18 06:05:39;;;;;;;21.73;14.48;;;;;;;26.40;61.32;99362.78;4392019;32;33165;-82
2021/07/18 06:08:07;;;;;;;18.05;13.10;;;;;;;26.72;60.90;99372.56;4379384;32;33085;-82
2021/07/18 06:10:35;;;;;;;18.73;12.90;;;;;;;27.00;59.87;99375.53;4379917;32;32942;-82
2021/07/18 06:13:03;;;;;;;19.90;13.50;;;;;;;26.57;60.90;99384.37;4392226;32;33537;-84
2021/07/18 06:15:30;;;;;;;19.70;12.40;;;;;;;26.26;61.13;99391.47;4379756;32;33550;-83
2021/07/18 06:17:58;;;;;;;17.17;12.73;;;;;;;26.68;59.79;99381.22;4379838;32;34138;-82
2021/07/18 06:20:29;;;;;;;13.27;10.20;;;;;;;26.99;59.75;99381.16;4403954;32;33912;-83
2021/07/18 06:22:57;;;;;;;18.85;13.05;;;;;;;26.90;58.71;99390.38;4392332;32;34416;-84
2021/07/18 06:25:25;;;;;;;17.20;11.68;;;;;;;26.89;58.73;99386.00;4391967;32;33095;-83
2021/07/18 06:27:52;;;;;;;16.95;11.48;;;;;;;26.96;58.54;99384.22;4392037;32;34792;-84
2021/07/18 06:30:20;;;;;;;18.40;13.18;;;;;;;27.64;57.53;99372.41;4392088;32;32975;-82
2021/07/18 06:32:48;;;;;;;13.95;11.70;;;;;;;27.70;56.58;99374.34;4379405;32;33280;-82
2021/07/18 06:35:16;;;;;;;16.10;10.93;;;;;;;27.40;57.60;99378.09;4385637;32;34544;-84
2021/07/18 06:37:43;;;;;;;15.80;11.20;;;;;;;27.67;56.33;99380.16;4379641;32;32581;-84
2021/07/18 06:40:12;;;;;;;14.05;10.75;;;;;;;27.69;57.38;99378.09;4379597;32;33931;-83
2021/07/18 06:42:39;;;;;;;12.90;10.55;;;;;;;27.80;56.60;99372.22;4379648;32;32887;-83
2021/07/18 06:45:09;;;;;;;16.77;10.32;;;;;;;27.94;55.63;99378.66;4392192;32;33840;-83
2021/07/18 06:47:37;;;;;;;13.45;10.90;;;;;;;27.84;56.74;99377.28;4379697;32;33329;-83
2021/07/18 06:50:05;;;;;;;14.13;10.48;;;;;;;28.10;55.82;99384.91;4379778;32;33966;-83
2021/07/18 06:52:33;;;;;;;12.73;10.70;;;;;;;27.82;56.75;99391.00;4391674;32;34657;-82
2021/07/18 06:55:01;;;;;;;15.90;10.93;;;;;;;27.69;55.98;99398.97;4392003;32;34894;-82
2021/07/18 06:57:28;;;;;;;16.80;10.80;;;;;;;27.86;56.38;99392.31;4391635;32;34703;-81
2021/07/18 06:59:57;;;;;;;15.32;11.30;;;;;;;27.82;56.82;99393.72;4367337;32;35116;-82
2021/07/18 07:02:24;;;;;;;15.40;11.98;;;;;;;27.65;57.64;99395.78;4388439;32;33832;-81
2021/07/18 07:04:52;;;;;;;16.23;13.00;;;;;;;27.92;56.63;99397.03;4391828;32;33337;-83
2021/07/18 07:07:20;;;;;;;21.40;11.75;;;;;;;27.98;56.39;99404.41;4391562;32;33975;-84
2021/07/18 07:09:47;;;;;;;18.20;11.75;;;;;;;28.18;55.88;99401.94;4390560;32;33636;-82
2021/07/18 07:12:15;;;;;;;18.87;11.90;;;;;;;27.99;56.25;99391.66;4391397;32;32931;-82
2021/07/18 07:14:43;;;;;;;20.70;12.68;;;;;;;28.28;55.98;99401.63;4389634;32;34107;-83
2021/07/18 07:17:10;;;;;;;20.98;12.57;;;;;;;27.99;55.96;99399.81;4390102;32;33743;-82
2021/07/18 07:19:38;;;;;;;16.05;10.90;;;;;;;28.09;55.70;99400.34;4391215;32;33790;-82
2021/07/18 07:22:07;;;;;;;14.75;11.45;;;;;;;28.66;55.20;99410.44;4390458;32;33938;-81
2021/07/18 07:24:35;;;;;;;12.43;10.98;;;;;;;28.87;55.60;99411.50;4390167;32;34125;-81
2021/07/18 07:27:03;;;;;;;14.23;10.30;;;;;;;29.00;53.84;99411.63;4368096;32;33795;-81
2021/07/18 07:29:31;;;;;;;15.30;10.55;;;;;;;29.20;52.30;99407.22;4363870;32;34975;-80
2021/07/18 07:31:58;;;;;;;14.30;10.68;;;;;;;29.44;52.94;99418.69;4391251;32;33879;-81
2021/07/18 07:34:26;;;;;;;14.90;10.27;;;;;;;29.10;52.07;99417.56;4403477;32;33248;-80
2021/07/18 07:36:54;;;;;;;15.82;9.68;;;;;;;29.55;50.97;99426.34;4390874;32;33797;-81
2021/07/18 07:39:22;;;;;;;12.27;9.07;;;;;;;29.80;50.12;99424.81;4376362;32;34314;-81
2021/07/18 07:41:49;;;;;;;11.63;9.45;;;;;;;29.93;50.55;99420.50;4390745;32;33878;-80
2021/07/18 07:44:17;;;;;;;8.82;7.43;;;;;;;29.05;51.80;99430.91;4378415;32;34513;-81
2021/07/18 07:46:45;;;;;;;11.90;7.85;;;;;;;28.94;49.98;99442.28;4389760;32;32652;-81
2021/07/18 07:49:12;;;;;;;10.27;7.70;;;;;;;29.34;50.63;99429.91;4377808;32;32355;-80
2021/07/18 07:51:40;;;;;;;8.82;7.95;;;;;;;29.67;50.11;99435.63;4376355;32;33007;-81
2021/07/18 07:54:08;;;;;;;11.63;7.72;;;;;;;29.45;50.01;99447.56;4375989;32;34516;-81
2021/07/18 07:56:36;;;;;;;8.38;7.45;;;;;;;29.03;49.36;99454.75;4389884;32;33988;-81
2021/07/18 07:59:04;;;;;;;8.95;7.60;;;;;;;28.97;49.80;99466.41;4386193;32;33341;-81
2021/07/18 08:01:31;;;;;;;8.88;7.82;;;;;;;29.08;49.62;99471.31;4376615;32;32778;-81
2021/07/18 08:03:59;;;;;;;11.55;8.15;;;;;;;28.49;51.26;99479.62;4387628;32;34712;-81
2021/07/18 08:06:27;;;;;;;10.95;7.47;;;;;;;28.49;51.13;99485.06;4377783;32;33124;-81
2021/07/18 08:08:54;;;;;;;10.70;8.70;;;;;;;28.24;51.73;99498.91;4375253;32;33289;-80
2021/07/18 08:11:22;;;;;;;11.75;8.60;;;;;;;27.93;52.72;99506.41;4391061;32;33849;-81
2021/07/18 08:13:50;;;;;;;10.48;9.23;;;;;;;27.49;54.87;99509.84;4390108;32;33193;-83
2021/07/18 08:16:18;;;;;;;13.18;9.70;;;;;;;27.47;55.81;99511.88;4388221;32;34887;-83
2021/07/18 08:18:46;;;;;;;11.75;10.10;;;;;;;27.62;56.02;99496.50;4390619;32;33073;-80
2021/07/18 08:21:13;;;;;;;14.68;10.93;;;;;;;27.39;56.75;99485.69;4390823;32;33848;-80
2021/07/18 08:23:53;;;;;;;14.70;11.40;;;;;;;27.07;57.65;99484.06;4376676;32;35607;-80
2021/07/18 08:26:21;;;;;;;16.40;11.40;;;;;;;27.35;57.68;99478.97;4378297;32;35894;-80
2021/07/18 08:28:49;;;;;;;14.30;10.45;;;;;;;27.14;57.83;99485.03;4376543;32;32512;-80
2021/07/18 08:31:17;;;;;;;17.40;11.30;;;;;;;27.24;57.79;99468.53;4390484;32;33878;-80
2021/07/18 08:33:45;;;;;;;17.33;11.57;;;;;;;27.50;57.32;99465.44;4390683;32;34029;-79
2021/07/18 08:36:13;;;;;;;10.13;8.48;;;;;;;27.65;56.21;99465.44;4390581;32;34117;-80
2021/07/18 08:38:41;;;;;;;14.07;9.98;;;;;;;27.62;56.35;99460.37;4390595;32;33195;-81
2021/07/18 08:41:08;;;;;;;13.55;10.80;;;;;;;27.90;55.80;99457.91;4365814;32;33657;-81
2021/07/18 08:43:44;;;;;;;12.37;8.80;;;;;;;28.02;55.50;99451.00;4379669;32;34014;-81
2021/07/18 08:46:12;;;;;;;14.85;11.30;;;;;;;28.13;54.42;99453.22;4378112;32;33979;-81
2021/07/18 08:48:40;;;;;;;17.95;10.32;;;;;;;28.14;55.08;99449.47;4378270;32;33795;-81
2021/07/18 08:51:07;;;;;;;12.52;8.63;;;;;;;28.11;54.62;99444.44;4377052;32;32942;-81
2021/07/18 08:53:35;;;;;;;10.63;8.00;;;;;;;28.00;54.75;99439.47;4390281;32;34173;-81
2021/07/18 08:56:03;;;;;;;13.40;8.70;;;;;;;27.88;53.96;99441.00;4378154;32;33798;-81
2021/07/18 08:58:31;;;;;;;12.05;9.20;;;;;;;28.08;54.79;99445.66;4387476;32;33758;-81
2021/07/18 09:00:58;;;;;;;11.70;7.68;;;;;;;28.27;54.61;99444.22;4389812;32;33596;-82
2021/07/18 09:03:30;;;;;;;10.38;8.52;;;;;;;28.44;53.23;99435.88;4389973;32;33795;-81
2021/07/18 09:06:10;;;;;;;11.48;7.93;;;;;;;28.29;53.73;99446.75;4379322;32;33242;-81
2021/07/18 09:08:46;;;;;;;10.30;8.18;;;;;;;28.37;53.39;99440.41;4391734;32;33248;-81
2021/07/18 09:11:23;;;;;;;11.75;8.80;;;;;;;28.27;52.52;99438.81;4391977;32;33887;-84
2021/07/18 09:14:10;;;;;;;15.18;9.27;;;;;;;28.13;53.53;99442.38;4390078;32;33018;-81
2021/07/18 09:16:40;;;;;;;11.32;8.38;;;;;;;28.16;53.22;99439.28;4392239;32;34558;-81
2021/07/18 09:19:29;;;;;;;9.73;8.48;;;;;;;28.30;52.71;99438.44;4390494;32;32326;-81
2021/07/18 09:21:57;;;;;;;11.55;8.30;;;;;;;28.31;52.78;99429.25;4390097;32;33959;-81
2021/07/18 09:24:28;;;;;;;11.15;8.85;;;;;;;28.29;53.34;99436.72;4392730;32;34097;-81
2021/07/18 09:27:12;;;;;;;12.40;8.63;;;;;;;28.35;53.71;99437.91;4379374;32;33532;-82
2021/07/18 09:29:44;;;;;;;11.88;8.70;;;;;;;28.52;55.52;99441.22;4392876;32;34292;-81
2021/07/18 09:32:16;;;;;;;;;;;;;;;29.07;53.05;99450.59;4391691;32;33953;-81
2021/07/18 09:34:46;;;;;;;13.30;7.93;;;;;;;29.27;52.56;99435.28;4391479;32;33973;-81
2021/07/18 09:37:28;;;;;;;10.65;7.30;;;;;;;29.13;50.15;99436.22;4381508;32;33464;-81
2021/07/18 09:40:14;;;;;;;10.57;8.25;;;;;;;28.69;50.64;99441.81;4389901;32;34006;-82
2021/07/18 09:42:47;;;;;;;11.50;7.30;;;;;;;29.09;51.50;99434.94;4368627;32;33768;-81
2021/07/18 09:45:23;;;;;;;11.27;7.68;;;;;;;29.18;50.41;99439.19;4391565;32;34997;-81
2021/07/18 09:48:02;;;;;;;7.72;6.55;;;;;;;29.20;50.88;99445.28;4379164;32;33029;-81
2021/07/18 09:50:33;;;;;;;10.90;6.43;;;;;;;29.26;50.39;99449.09;4389690;32;34406;-81
2021/07/18 09:53:07;;;;;;;8.53;7.30;;;;;;;29.37;50.08;99453.16;4391157;32;33610;-81
2021/07/18 09:55:37;;;;;;;9.93;7.12;;;;;;;29.15;51.64;99465.91;4403963;32;33829;-81
2021/07/18 09:58:05;;;;;;;9.95;6.47;;;;;;;28.73;49.83;99476.56;4391454;32;33515;-81
2021/07/18 10:00:41;;;;;;;7.78;6.05;;;;;;;28.91;49.36;99483.44;4375991;32;32974;-81
2021/07/18 10:03:11;;;;;;;8.18;5.97;;;;;;;28.70;49.15;99484.25;4391725;32;33914;-82
2021/07/18 10:05:38;;;;;;;7.28;6.12;;;;;;;28.79;50.31;99481.22;4389335;32;34998;-81
2021/07/18 10:08:08;;;;;;;9.30;6.97;;;;;;;28.90;51.06;99479.03;4392024;32;34386;-82
2021/07/18 10:10:38;;;;;;;10.60;7.30;;;;;;;28.93;51.56;99486.81;4379106;32;34698;-82
2021/07/18 10:13:07;;;;;;;9.90;6.82;;;;;;;28.75;52.74;99485.34;4392125;32;32918;-82
2021/07/18 10:15:34;;;;;;;7.65;6.85;;;;;;;28.65;54.38;99476.69;4391752;32;32616;-82
2021/07/18 10:18:03;;;;;;;9.40;7.25;;;;;;;28.53;55.48;99475.47;4392355;32;33570;-82
2021/07/18 10:20:31;;;;;;;10.65;7.57;;;;;;;28.47;55.18;99465.38;4391023;32;32423;-82
2021/07/18 10:22:59;;;;;;;10.43;7.68;;;;;;;28.38;57.80;99461.94;4378776;32;34332;-82
2021/07/18 10:25:27;;;;;;;11.68;7.78;;;;;;;28.33;58.17;99458.91;4391802;32;34029;-82
2021/07/18 10:27:55;;;;;;;12.07;7.10;;;;;;;28.34;58.60;99460.63;4391260;32;32961;-82
2021/07/18 10:30:23;;;;;;;12.55;8.38;;;;;;;28.02;60.45;99449.12;4392038;32;33837;-82
2021/07/18 10:32:52;;;;;;;11.20;7.70;;;;;;;27.87;61.08;99439.28;4379587;32;32216;-82
2021/07/18 10:35:22;;;;;;;14.90;8.77;;;;;;;27.72;62.18;99440.12;4367085;32;33187;-82
2021/07/18 10:37:50;;;;;;;12.93;7.93;;;;;;;27.76;61.78;99429.75;4391756;32;35113;-81
2021/07/18 10:40:25;;;;;;;8.85;7.53;;;;;;;27.67;61.76;99428.97;4379862;32;33429;-82
2021/07/18 10:42:52;;;;;;;12.23;7.30;;;;;;;27.86;60.32;99419.47;4391651;32;33823;-82
2021/07/18 10:45:26;;;;;;;11.75;8.32;;;;;;;27.80;60.40;99423.78;4379397;32;33384;-82
2021/07/18 10:47:59;;;;;;;12.00;7.43;;;;;;;27.38;63.20;99426.22;4391800;32;33908;-82
2021/07/18 10:50:59;;;;;;;10.35;7.80;;;;;;;27.16;64.18;99407.13;4391645;32;33558;-82
2021/07/18 10:53:30;;;;;;;13.52;8.00;;;;;;;27.45;62.85;99410.91;4378782;32;33836;-82
2021/07/18 10:55:59;;;;;;;12.43;9.20;;;;;;;27.38;62.98;99404.53;4391746;32;33801;-82
2021/07/18 10:58:39;;;;;;;11.00;8.45;;;;;;;27.21;64.64;99395.75;4378514;32;34113;-82
2021/07/18 11:01:10;;;;;;;9.73;7.10;;;;;;;27.31;64.25;99388.19;4389612;32;32474;-82
2021/07/18 11:03:39;;;;;;;8.90;6.97;;;;;;;27.39;63.55;99382.66;4392458;32;34172;-82
2021/07/18 11:06:28;;;;;;;8.13;7.22;;;;;;;27.30;63.60;99373.78;4367429;32;34367;-82
2021/07/18 11:09:05;;;;;;;8.40;6.80;;;;;;;27.26;62.78;99375.19;4379767;32;33901;-82
2021/07/18 11:11:37;;;;;;;9.18;6.75;;;;;;;27.46;62.04;99366.50;4391743;32;32719;-82
2021/07/18 11:14:22;;;;;;;16.83;7.68;;;;;;;27.42;63.12;99367.91;4379538;32;33879;-82
2021/07/18 11:16:59;;;;;;;9.40;7.57;;;;;;;27.46;62.79;99366.50;4378287;32;34152;-82
2021/07/18 11:19:38;;;;;;;10.90;7.18;;;;;;;27.33;63.81;99358.16;4391011;32;34266;-83
2021/07/18 11:22:08;;;;;;;12.50;7.37;;;;;;;27.50;63.07;99362.38;4389008;32;32358;-82
2021/07/18 11:24:53;;;;;;;14.25;8.68;;;;;;;27.44;63.61;99373.97;4379139;32;34186;-82
2021/07/18 11:27:29;;;;;;;13.23;8.32;;;;;;;27.75;62.58;99362.97;4390880;32;34519;-82
2021/07/18 11:29:58;;;;;;;9.98;7.60;;;;;;;27.47;65.84;99370.88;4378085;32;32901;-82